Data for 12/07/2012

Time Sea-Level Adjusted Pressure Absolute Pressure Temperature Relative Humidity Dew Point   
(mb) (inHg) (mb) (inHg) (C) (F) (%) (C) (F)
00:05 1014 29.94 843 24.89 -3.3 26 97 -3.8 25.2
00:10 1014 29.94 843 24.89 -3.2 26.3 97 -3.6 25.5
00:15 1014 29.94 843 24.89 -3.1 26.4 97 -3.6 25.6
00:20 1014 29.94 843 24.89 -3.1 26.4 96 -3.6 25.5
00:25 1014 29.94 843 24.89 -3.1 26.4 96 -3.6 25.5
00:30 1014 29.94 843 24.89 -3.1 26.4 96 -3.7 25.4
00:35 1014 29.94 843 24.89 -3.2 26.3 96 -3.8 25.2
00:40 1014 29.94 843 24.89 -3.1 26.4 96 -3.7 25.4
00:45 1014 29.94 843 24.89 -3.1 26.5 96 -3.7 25.4
00:50 1014 29.94 844 24.92 -3.1 26.5 96 -3.7 25.4
00:55 1014 29.94 844 24.92 -3.1 26.5 96 -3.7 25.3
01:00 1014 29.94 844 24.92 -3.1 26.3 96 -3.8 25.2
01:05 1014 29.94 843 24.89 -3.2 26.3 96 -3.8 25.2
01:10 1014 29.94 843 24.89 -3.1 26.3 96 -3.7 25.3
01:15 1014 29.94 843 24.89 -3.1 26.3 95 -3.8 25.2
01:20 1014 29.94 843 24.89 -3.2 26.2 95 -3.9 25
01:25 1014 29.94 843 24.89 -3.4 25.9 95 -4.1 24.7
01:30 1014 29.94 843 24.89 -3.5 25.7 95 -4.1 24.6
01:35 1014 29.94 843 24.89 -3.5 25.6 95 -4.2 24.4
01:40 1014 29.94 843 24.89 -3.7 25.4 95 -4.3 24.2
01:45 1014 29.94 843 24.89 -3.8 25.1 95 -4.5 24
01:50 1014 29.94 843 24.89 -3.9 25 96 -4.5 23.9
01:55 1014 29.94 843 24.89 -3.9 25 96 -4.5 24
02:00 1014 29.94 843 24.89 -3.9 24.9 96 -4.5 23.8
02:05 1014 29.94 843 24.89 -3.9 25 96 -4.4 24.1
02:10 1014 29.94 843 24.89 -3.7 25.3 96 -4.2 24.4
02:15 1014 29.94 843 24.89 -3.6 25.5 96 -4.2 24.4
02:20 1014 29.94 843 24.89 -3.7 25.4 95 -4.3 24.3
02:25 1014 29.94 843 24.89 -3.7 25.3 95 -4.4 24.1
02:30 1014 29.94 843 24.89 -3.8 25.2 96 -4.4 24.1
02:35 1014 29.94 843 24.89 -3.9 25.1 96 -4.4 24
02:40 1014 29.94 843 24.89 -3.9 25 96 -4.5 23.9
02:45 1014 29.94 843 24.89 -3.9 25 96 -4.5 23.9
02:50 1014 29.94 843 24.89 -4 24.9 96 -4.6 23.8
02:55 1014 29.94 843 24.89 -4 24.8 95 -4.7 23.6
03:00 1014 29.94 843 24.89 -4.1 24.5 94 -5 23.1
03:05 1014 29.94 843 24.89 -4.3 24.3 93 -5.2 22.6
03:10 1014 29.94 843 24.89 -4.4 24.1 93 -5.3 22.4
03:15 1014 29.94 843 24.89 -4.5 23.9 93 -5.4 22.2
03:20 1014 29.94 843 24.89 -4.7 23.6 93 -5.6 21.8
03:25 1014 29.94 843 24.89 -4.7 23.5 92 -5.9 21.4
03:30 1014 29.94 843 24.89 -4.1 24.6 87 -6 21.3
03:35 1014 29.94 843 24.89 -3.8 25.1 87 -5.7 21.7
03:40 1014 29.94 843 24.89 -3.7 25.4 85 -5.9 21.4
03:45 1014 29.94 843 24.89 -3.6 25.5 86 -5.6 22
03:50 1014 29.94 843 24.89 -3.8 25.1 87 -5.6 21.9
03:55 1014 29.94 843 24.89 -3.8 25.1 88 -5.6 22
04:00 1014 29.94 843 24.89 -3.9 25.1 89 -5.5 22.2
04:05 1014 29.94 843 24.89 -4 24.8 88 -5.7 21.8
04:10 1014 29.94 843 24.89 -4.2 24.4 89 -5.8 21.6
04:15 1014 29.94 843 24.89 -4.1 24.6 88 -5.8 21.6
04:20 1014 29.94 843 24.89 -4.1 24.7 88 -5.7 21.7
04:25 1014 29.94 843 24.89 -3.7 25.3 86 -5.8 21.6
04:30 1014 29.94 843 24.89 -3 26.5 84 -5.4 22.2
04:35 1013 29.91 842 24.86 -2.7 27.2 83 -5.2 22.7
04:40 1013 29.91 842 24.86 -2.5 27.4 82 -5.2 22.7
04:45 1013 29.91 842 24.86 -2.6 27.4 82 -5.2 22.7
04:50 1013 29.91 842 24.86 -2.7 27.1 83 -5.2 22.7
04:55 1013 29.91 842 24.86 -2.9 26.8 81 -5.7 21.7
05:00 1013 29.91 842 24.86 -3 26.6 81 -5.8 21.6
05:05 1013 29.91 842 24.86 -2.9 26.8 79 -6 21.2
05:10 1013 29.91 842 24.86 -2.8 27 80 -5.8 21.6
05:15 1013 29.91 842 24.86 -2.9 26.7 82 -5.6 21.9
05:20 1013 29.91 842 24.86 -3.1 26.5 81 -5.9 21.4
05:25 1013 29.91 842 24.86 -2.9 26.8 76 -6.6 20.2
05:30 1013 29.91 842 24.86 -2.8 27 75 -6.7 20
05:35 1013 29.91 842 24.86 -2.9 26.8 74 -6.9 19.6
05:40 1013 29.91 842 24.86 -3.1 26.5 74 -7 19.3
05:45 1013 29.91 842 24.86 -3 26.6 77 -6.4 20.4
05:50 1013 29.91 842 24.86 -3 26.6 80 -5.9 21.3
05:55 1013 29.91 842 24.86 -3.2 26.3 82 -5.8 21.5
06:00 1013 29.91 842 24.86 -3.2 26.2 78 -6.6 20.2
06:05 1013 29.91 842 24.86 -3.2 26.3 73 -7.3 18.8
06:10 1013 29.91 842 24.86 -2.9 26.9 71 -7.3 18.8
06:15 1013 29.91 842 24.86 -2.7 27.1 73 -7 19.4
06:20 1013 29.91 842 24.86 -2.8 26.9 74 -6.9 19.6
06:25 1013 29.91 842 24.86 -3 26.5 75 -6.8 19.7
06:30 1013 29.91 842 24.86 -3.2 26.3 76 -6.9 19.7
06:35 1013 29.91 842 24.86 -3.2 26.2 75 -7.1 19.3
06:40 1013 29.91 842 24.86 -3.3 26.1 76 -7 19.4
06:45 1013 29.91 842 24.86 -3.3 26 76 -7.1 19.3
06:50 1013 29.91 842 24.86 -3.3 26 76 -7 19.4
06:55 1013 29.91 842 24.86 -3.4 25.9 78 -6.7 19.9
07:00 1013 29.91 842 24.86 -3.5 25.7 78 -6.8 19.8
07:05 1013 29.91 842 24.86 -3.5 25.7 77 -6.9 19.5
07:10 1013 29.91 842 24.86 -3.4 25.8 78 -6.8 19.7
07:15 1013 29.91 842 24.86 -3.3 26 78 -6.7 19.9
07:20 1013 29.91 843 24.89 -3.3 26 79 -6.5 20.3
07:25 1013 29.91 843 24.89 -3.4 25.9 79 -6.5 20.2
07:30 1014 29.94 843 24.89 -3.5 25.7 81 -6.3 20.6
07:35 1014 29.94 843 24.89 -3.6 25.5 80 -6.6 20.2
07:40 1014 29.94 843 24.89 -3.5 25.7 78 -6.8 19.7
07:45 1014 29.94 843 24.89 -3.5 25.7 80 -6.5 20.3
07:50 1014 29.94 843 24.89 -3.6 25.5 80 -6.6 20.1
07:55 1014 29.94 843 24.89 -3.7 25.4 80 -6.7 20
08:00 1014 29.94 843 24.89 -3.7 25.4 81 -6.5 20.2
08:05 1014 29.94 843 24.89 -3.6 25.5 80 -6.5 20.2
08:10 1014 29.94 843 24.89 -3.6 25.6 80 -6.6 20.2
08:15 1014 29.94 843 24.89 -3.5 25.6 79 -6.6 20
08:20 1014 29.94 843 24.89 -3.5 25.7 78 -6.8 19.8
08:25 1014 29.94 843 24.89 -3.6 25.6 78 -6.9 19.6
08:30 1014 29.94 843 24.89 -3.6 25.6 79 -6.7 19.9
08:35 1014 29.94 843 24.89 -3.5 25.6 78 -6.8 19.7
08:40 1014 29.94 843 24.89 -3.5 25.7 78 -6.8 19.7
08:45 1014 29.94 843 24.89 -3.5 25.7 78 -6.8 19.8
08:50 1014 29.94 844 24.92 -3.3 26.1 78 -6.7 20
08:55 1014 29.94 844 24.92 -3.2 26.2 78 -6.6 20.2
09:00 1014 29.94 844 24.92 -3.3 26 78 -6.6 20.1
09:05 1014 29.94 844 24.92 -3.3 26 78 -6.6 20.1
09:10 1014 29.94 844 24.92 -3.3 26.1 77 -6.8 19.8
09:15 1014 29.94 844 24.92 -3.4 25.9 76 -6.9 19.5
09:20 1015 29.97 844 24.92 -3.3 26.1 77 -6.7 19.9
09:25 1015 29.97 844 24.92 -3.1 26.4 77 -6.7 20
09:30 1015 29.97 844 24.92 -3.1 26.4 75 -6.9 19.6
09:35 1015 29.97 844 24.92 -3.1 26.5 73 -7.2 19.1
09:40 1015 29.97 844 24.92 -3 26.6 74 -7 19.5
09:45 1015 29.97 844 24.92 -3.1 26.5 74 -7 19.4
09:50 1015 29.97 844 24.92 -3.2 26.3 74 -7.1 19.1
09:55 1015 29.97 844 24.92 -3.3 26 75 -7.2 19
10:00 1015 29.97 844 24.92 -3.4 25.9 73 -7.6 18.3
10:05 1015 29.97 844 24.92 -3.2 26.2 72 -7.5 18.5
10:10 1015 29.97 844 24.92 -2.9 26.8 71 -7.5 18.5
10:15 1015 29.97 844 24.92 -2.5 27.5 68 -7.6 18.3
10:20 1015 29.97 844 24.92 -2.7 27.2 70 -7.5 18.5
10:25 1015 29.97 844 24.92 -2.7 27.2 71 -7.3 18.9
10:30 1015 29.97 844 24.92 -2.6 27.2 70 -7.3 18.9
10:35 1015 29.97 844 24.92 -2.6 27.3 70 -7.3 18.9
10:40 1015 29.97 844 24.92 -2.7 27.2 72 -7.1 19.2
10:45 1015 29.97 844 24.92 -2.9 26.8 74 -6.9 19.6
10:50 1015 29.97 844 24.92 -3.1 26.5 74 -7 19.3
10:55 1015 29.97 844 24.92 -3.2 26.3 74 -7.2 19
11:00 1015 29.97 844 24.92 -3.2 26.2 73 -7.5 18.5
11:05 1015 29.97 844 24.92 -3.1 26.4 73 -7.2 19
11:10 1015 29.97 844 24.92 -2.7 27.2 71 -7.2 19
11:15 1015 29.97 844 24.92 -2.4 27.7 71 -7 19.5
11:20 1015 29.97 844 24.92 -2.5 27.4 72 -6.9 19.6
11:25 1015 29.97 844 24.92 -2.8 26.9 72 -7.2 19
11:30 1015 29.97 844 24.92 -2.8 26.9 73 -7 19.5
11:35 1015 29.97 844 24.92 -2.9 26.9 72 -7.2 19
11:40 1015 29.97 844 24.92 -2.8 27 72 -7.1 19.2
11:45 1015 29.97 844 24.92 -2.7 27.1 71 -7.3 18.8
11:50 1015 29.97 844 24.92 -3 26.6 72 -7.3 18.9
11:55 1015 29.97 844 24.92 -2.9 26.7 69 -7.8 18
12:00 1015 29.97 844 24.92 -2.6 27.3 69 -7.5 18.4
12:05 1015 29.97 844 24.92 -2.4 27.6 68 -7.5 18.5
12:10 1015 29.97 844 24.92 -1.9 28.7 67 -7.3 18.9
12:15 1015 29.97 844 24.92 -1.4 29.4 63 -7.6 18.3
12:20 1015 29.97 844 24.92 -1.5 29.3 64 -7.5 18.4
12:25 1014 29.94 844 24.92 -1.1 30.1 58 -8.3 17.1
12:30 1014 29.94 844 24.92 -0.3 31.5 51 -9.2 15.4
12:35 1014 29.94 843 24.89 -0.1 31.8 52 -8.7 16.4
12:40 1014 29.94 843 24.89 0.9 33.6 50 -8.4 16.9
12:45 1014 29.94 843 24.89 1.9 35.3 41 -10 14
12:50 1014 29.94 843 24.89 2.3 36.1 42 -9.5 14.9
12:55 1014 29.94 843 24.89 1.4 34.5 44 -9.5 15
13:00 1014 29.94 843 24.89 1.3 34.3 42 -10.2 13.7
13:05 1014 29.94 843 24.89 1.1 33.9 44 -9.7 14.5
13:10 1014 29.94 843 24.89 1.1 34 44 -9.9 14.3
13:15 1014 29.94 843 24.89 1.2 34.1 42 -10.4 13.3
13:20 1014 29.94 843 24.89 0.8 33.5 45 -9.9 14.1
13:25 1014 29.94 843 24.89 0.7 33.2 44 -10.3 13.4
13:30 1014 29.94 843 24.89 0.2 32.3 46 -10.1 13.8
13:35 1014 29.94 843 24.89 0.2 32.3 46 -10.2 13.7
13:40 1014 29.94 843 24.89 0.4 32.8 46 -9.8 14.4
13:45 1014 29.94 843 24.89 0.3 32.5 49 -9.3 15.3
13:50 1014 29.94 843 24.89 0.4 32.7 48 -9.5 14.9
13:55 1014 29.94 843 24.89 0.5 32.9 47 -9.6 14.7
14:00 1013 29.91 843 24.89 0.7 33.3 46 -9.5 14.9
14:05 1013 29.91 843 24.89 0.8 33.5 45 -9.9 14.1
14:10 1013 29.91 842 24.86 1 33.8 46 -9.3 15.3
14:15 1013 29.91 842 24.86 1.1 34 43 -10 14
14:20 1013 29.91 842 24.86 1 33.8 46 -9.5 14.9
14:25 1013 29.91 842 24.86 0.9 33.6 48 -8.9 16
14:30 1013 29.91 842 24.86 0.5 32.9 48 -9.2 15.4
14:35 1013 29.91 842 24.86 0.6 33.2 47 -9.5 15
14:40 1013 29.91 842 24.86 0.8 33.4 48 -9.1 15.5
14:45 1013 29.91 842 24.86 0.7 33.2 50 -8.7 16.4
14:50 1013 29.91 842 24.86 0.7 33.2 47 -9.4 15.1
14:55 1013 29.91 842 24.86 0.6 33.1 46 -9.7 14.5
15:00 1013 29.91 842 24.86 0.7 33.3 47 -9.3 15.3
15:05 1013 29.91 842 24.86 0.8 33.4 46 -9.6 14.7
15:10 1012 29.88 842 24.86 0.8 33.4 42 -10.6 12.9
15:15 1012 29.88 842 24.86 0.8 33.5 43 -10.5 13.1
15:20 1012 29.88 841 24.83 1 33.8 43 -10.4 13.3
15:25 1012 29.88 841 24.83 1 33.8 42 -10.6 12.9
15:30 1012 29.88 841 24.83 0.7 33.2 44 -10.3 13.4
15:35 1012 29.88 841 24.83 0.4 32.8 46 -9.8 14.4
15:40 1012 29.88 841 24.83 0.8 33.4 46 -9.6 14.8
15:45 1012 29.88 841 24.83 1.3 34.4 44 -9.6 14.8
15:50 1012 29.88 841 24.83 2 35.6 43 -9.5 15
15:55 1012 29.88 841 24.83 2.2 35.9 42 -9.4 15.1
16:00 1012 29.88 841 24.83 2.5 36.6 41 -9.5 14.9
16:05 1012 29.88 841 24.83 2.2 35.9 44 -8.9 16.1
16:10 1012 29.88 841 24.83 1.7 35.1 44 -9.3 15.3
16:15 1012 29.88 841 24.83 1.5 34.8 47 -8.7 16.4
16:20 1012 29.88 841 24.83 1.4 34.5 46 -9 15.8
16:25 1012 29.88 841 24.83 1.3 34.3 46 -9.1 15.6
16:30 1012 29.88 841 24.83 1 33.9 47 -9.1 15.7
16:35 1011 29.85 841 24.83 0.9 33.7 46 -9.3 15.3
16:40 1011 29.85 841 24.83 0.8 33.4 46 -9.7 14.5
16:45 1011 29.85 841 24.83 0.8 33.4 47 -9.2 15.4
16:50 1011 29.85 840 24.81 1 33.8 46 -9.3 15.2
16:55 1011 29.85 840 24.81 0.8 33.4 47 -9.4 15
17:00 1011 29.85 840 24.81 0.5 32.8 48 -9.4 15.1
17:05 1011 29.85 840 24.81 0.3 32.5 49 -9.3 15.2
17:10 1011 29.85 840 24.81 0.1 32.2 50 -9.2 15.5
17:15 1011 29.85 840 24.81 0 32 48 -9.7 14.5
17:20 1011 29.85 840 24.81 -0.3 31.5 51 -9.3 15.2
17:25 1011 29.85 840 24.81 -0.7 30.8 51 -9.7 14.5
17:30 1011 29.85 840 24.81 -1 30.2 53 -9.4 15
17:35 1011 29.85 840 24.81 -1.2 29.8 52 -9.9 14.3
17:40 1011 29.85 840 24.81 -1.3 29.7 52 -10 14
17:45 1011 29.85 840 24.81 -1.2 29.9 50 -10.3 13.5
17:50 1011 29.85 840 24.81 -1 30.3 50 -10 13.9
17:55 1010 29.83 840 24.81 -0.9 30.3 53 -9.4 15.1
18:00 1010 29.83 840 24.81 -1.3 29.7 57 -8.9 16.1
18:05 1010 29.83 839 24.78 -1.5 29.3 59 -8.5 16.7
18:10 1010 29.83 839 24.78 -1.6 29.1 56 -9.3 15.2
18:15 1010 29.83 839 24.78 -1.5 29.3 56 -9.1 15.6
18:20 1010 29.83 839 24.78 -1.5 29.3 57 -8.9 15.9
18:25 1010 29.83 839 24.78 -1.5 29.2 56 -9.3 15.3
18:30 1010 29.83 839 24.78 -1.5 29.2 60 -8.4 16.8
18:35 1010 29.83 839 24.78 -1.6 29.2 59 -8.5 16.7
18:40 1010 29.83 839 24.78 -1.6 29.1 55 -9.6 14.7
18:45 1010 29.83 839 24.78 -1.4 29.5 54 -9.5 15
18:50 1010 29.83 839 24.78 -1.3 29.6 57 -8.9 16
18:55 1010 29.83 839 24.78 -1.4 29.5 57 -8.9 16
19:00 1010 29.83 839 24.78 -1.6 29.2 59 -8.6 16.5
19:05 1010 29.83 839 24.78 -1.8 28.7 62 -8.2 17.3
19:10 1010 29.83 839 24.78 -2 28.5 62 -8.3 17.1
19:15 1010 29.83 839 24.78 -2.1 28.3 64 -8.1 17.5
19:20 1010 29.83 839 24.78 -2.2 28.1 67 -7.6 18.4
19:25 1010 29.83 839 24.78 -2.2 28 64 -8.2 17.3
19:30 1010 29.83 839 24.78 -2.3 27.9 63 -8.3 17
19:35 1010 29.83 839 24.78 -2.2 28 59 -9.3 15.3
19:40 1009 29.8 839 24.78 -2.4 27.6 62 -8.8 16.2
19:45 1009 29.8 839 24.78 -2.8 27 61 -9.2 15.4
19:50 1009 29.8 839 24.78 -2.7 27.1 63 -8.9 16
19:55 1009 29.8 838 24.75 -2.7 27.1 62 -9 15.7
20:00 1009 29.8 838 24.75 -2.7 27.2 59 -9.5 14.8
20:05 1009 29.8 838 24.75 -2.3 27.9 58 -9.5 14.9
20:10 1009 29.8 838 24.75 -1.9 28.6 56 -9.6 14.7
20:15 1009 29.8 838 24.75 -1.6 29.1 58 -8.7 16.3
20:20 1009 29.8 838 24.75 -1.7 28.9 60 -8.5 16.7
20:25 1009 29.8 838 24.75 -1.9 28.6 62 -8.3 17.1
20:30 1009 29.8 838 24.75 -2.3 27.9 63 -8.3 17.1
20:35 1009 29.8 838 24.75 -2.3 27.9 59 -9.2 15.5
20:40 1008 29.77 838 24.75 -2.2 28.1 63 -8.4 16.9
20:45 1008 29.77 838 24.75 -2.5 27.5 65 -8.2 17.3
20:50 1008 29.77 838 24.75 -2.7 27.2 66 -8.1 17.4
20:55 1008 29.77 838 24.75 -3 26.7 66 -8.5 16.7
21:00 1008 29.77 837 24.72 -2.8 27 64 -8.6 16.5
21:05 1008 29.77 837 24.72 -2.6 27.3 63 -8.7 16.4
21:10 1008 29.77 837 24.72 -2.4 27.7 61 -8.8 16.1
21:15 1008 29.77 837 24.72 -2 28.3 62 -8.3 17
21:20 1008 29.77 837 24.72 -1.8 28.8 61 -8.4 17
21:25 1008 29.77 837 24.72 -1.7 28.9 61 -8.4 16.9
21:30 1008 29.77 837 24.72 -1.7 29 58 -8.8 16.2
21:35 1008 29.77 837 24.72 -1.5 29.3 57 -8.9 16
21:40 1008 29.77 837 24.72 -1.3 29.7 57 -8.8 16.1
21:45 1007 29.74 837 24.72 -1.1 30 57 -8.7 16.4
21:50 1007 29.74 836 24.69 -1.1 30.1 56 -8.8 16.2
21:55 1007 29.74 836 24.69 -0.8 30.5 54 -9.1 15.6
22:00 1007 29.74 836 24.69 -0.5 31.1 53 -9 15.8
22:05 1007 29.74 836 24.69 -0.3 31.5 52 -8.8 16.1
22:10 1007 29.74 836 24.69 -0.4 31.3 55 -8.5 16.8
22:15 1007 29.74 836 24.69 -0.6 31 53 -9.1 15.7
22:20 1007 29.74 836 24.69 -0.4 31.2 51 -9.5 14.9
22:25 1007 29.74 836 24.69 -0.4 31.3 51 -9.3 15.2
22:30 1007 29.74 836 24.69 -0.4 31.3 53 -8.9 16
22:35 1007 29.74 836 24.69 -0.3 31.5 52 -8.9 16
22:40 1007 29.74 836 24.69 -0.4 31.3 53 -8.9 16
22:45 1007 29.74 836 24.69 -0.3 31.4 48 -10 14
22:50 1007 29.74 836 24.69 -0.1 31.7 49 -9.7 14.5
22:55 1006 29.71 836 24.69 -0 32 50 -9.2 15.4
23:00 1006 29.71 836 24.69 -0.2 31.7 50 -9.4 15
23:05 1006 29.71 836 24.69 -0.2 31.6 50 -9.5 14.9
23:10 1006 29.71 836 24.69 -0.3 31.5 49 -9.7 14.5
23:15 1006 29.71 835 24.66 -0.2 31.6 49 -9.8 14.4
23:20 1006 29.71 835 24.66 -0.2 31.6 50 -9.4 15.1
23:25 1006 29.71 835 24.66 -0.4 31.3 51 -9.4 15
23:30 1006 29.71 835 24.66 -0.5 31.2 49 -9.9 14.2
23:35 1006 29.71 835 24.66 -0.4 31.4 48 -10 14.1
23:40 1006 29.71 835 24.66 -0.4 31.4 49 -9.8 14.4
23:45 1006 29.71 835 24.66 -0.4 31.3 50 -9.6 14.7
23:50 1006 29.71 835 24.66 -0.5 31.1 50 -9.6 14.7
23:55 1006 29.71 835 24.66 -0.5 31.1 51 -9.4 15.1
24:00 1006 29.71 835 24.66 -0.6 30.9 51 -9.5 15